Terminal Aerodrome Forecast
Issued by NWS St Louis, MO

Home | Current Version | Previous Version | Text Only | Print | Product List | Glossary On
Versions: 1 2 3 4 5 6 7 8 9 10 11 12 13 14 15 16 17 18
000
FTUS43 KLSX 232320
TAFCOU
TAF
KCOU 232320Z 2400/2424 16010KT P6SM SCT050 BKN250
     FM240300 17006KT P6SM VCTS SCT050CB BKN120
     FM240600 16005KT P6SM VCSH BKN150
     FM241200 18006KT P6SM SCT040 BKN150
     FM241900 17012KT P6SM VCSH SCT040 BKN120=

USA.gov is the U.S. government's official web portal to all federal, state and local government web resources and services.